createdAt,value
2023-04-22T00:02:25.379Z,3.10
2023-04-22T00:04:53.427Z,3.78
2023-04-22T00:07:20.683Z,3.70
2023-04-22T00:09:47.535Z,3.70
2023-04-22T00:12:14.396Z,3.97
2023-04-22T00:14:41.278Z,3.38
2023-04-22T00:17:08.175Z,3.50
2023-04-22T00:19:35.423Z,3.60
2023-04-22T00:22:02.443Z,3.58
2023-04-22T00:24:29.888Z,3.97
2023-04-22T00:26:56.753Z,3.88
2023-04-22T00:29:23.584Z,3.47
2023-04-22T00:31:50.608Z,4.15
2023-04-22T00:34:20.729Z,3.95
2023-04-22T00:36:48.497Z,3.97
2023-04-22T00:39:15.652Z,3.70
2023-04-22T00:41:42.906Z,3.78
2023-04-22T00:44:11.298Z,3.92
2023-04-22T00:46:40.991Z,3.97
2023-04-22T00:49:08.797Z,3.90
2023-04-22T00:51:35.770Z,4.00
2023-04-22T00:54:03.568Z,4.28
2023-04-22T00:56:31.930Z,3.95
2023-04-22T00:58:59.911Z,3.80
2023-04-22T01:01:26.981Z,4.18
2023-04-22T01:03:54.763Z,4.43
2023-04-22T01:06:26.662Z,4.50
2023-04-22T01:08:54.469Z,4.78
2023-04-22T01:11:21.810Z,5.28
2023-04-22T01:13:48.659Z,4.55
2023-04-22T01:16:15.746Z,5.68
2023-04-22T01:18:44.071Z,4.85
2023-04-22T01:21:12.060Z,5.28
2023-04-22T01:23:39.689Z,5.18
2023-04-22T01:26:06.904Z,5.10
2023-04-22T01:28:34.186Z,4.90
2023-04-22T01:31:01.046Z,5.25
2023-04-22T01:33:31.002Z,4.57
2023-04-22T01:35:57.851Z,5.20
2023-04-22T01:38:26.062Z,4.68
2023-04-22T01:40:53.215Z,5.63
2023-04-22T01:43:20.145Z,4.65
2023-04-22T01:45:46.991Z,4.90
2023-04-22T01:48:13.969Z,5.35
2023-04-22T01:50:40.832Z,5.15
2023-04-22T01:53:08.896Z,5.50
2023-04-22T01:55:36.299Z,5.57
2023-04-22T01:58:04.158Z,5.53
2023-04-22T02:00:31.614Z,5.35
2023-04-22T02:02:58.588Z,4.95
2023-04-22T02:05:26.771Z,5.20
2023-04-22T02:07:53.974Z,5.60
2023-04-22T02:10:21.224Z,5.53
2023-04-22T02:12:48.112Z,5.50
2023-04-22T02:15:14.965Z,5.38
2023-04-22T02:17:43.664Z,5.30
2023-04-22T02:20:14.263Z,5.15
2023-04-22T02:22:43.659Z,5.15
2023-04-22T02:25:12.333Z,5.13
2023-04-22T02:27:39.591Z,5.68
2023-04-22T02:30:07.487Z,4.85
2023-04-22T02:32:36.504Z,4.80
2023-04-22T02:35:03.579Z,5.60
2023-04-22T02:37:30.398Z,5.70
2023-04-22T02:39:57.290Z,5.85
2023-04-22T02:42:24.427Z,5.70
2023-04-22T02:44:51.210Z,5.60
2023-04-22T02:47:18.069Z,5.55
2023-04-22T02:49:44.918Z,5.90
2023-04-22T02:52:11.681Z,5.47
2023-04-22T02:54:38.539Z,4.90
2023-04-22T02:57:05.473Z,5.65
2023-04-22T02:59:32.403Z,5.20
2023-04-22T03:02:00.210Z,4.88
2023-04-22T03:04:27.154Z,5.15
2023-04-22T03:06:54.019Z,5.47
2023-04-22T03:13:23.141Z,5.45
2023-04-22T03:15:50.156Z,5.05
2023-04-22T03:18:16.952Z,5.50
2023-04-22T03:20:43.845Z,5.45
2023-04-22T03:23:10.660Z,4.85
2023-04-22T03:25:37.480Z,5.50
2023-04-22T03:28:04.535Z,5.82
2023-04-22T03:30:31.417Z,5.82
2023-04-22T03:32:58.721Z,5.45
2023-04-22T03:35:25.568Z,5.30
2023-04-22T03:37:52.453Z,4.78
2023-04-22T03:40:19.418Z,5.15
2023-04-22T03:42:46.258Z,5.53
2023-04-22T03:45:13.067Z,5.63
2023-04-22T03:47:39.912Z,5.10
2023-04-22T03:50:07.218Z,5.63
2023-04-22T03:52:34.040Z,5.35
2023-04-22T03:55:00.845Z,5.22
2023-04-22T03:57:27.773Z,6.20
2023-04-22T03:59:54.544Z,5.50
2023-04-22T04:02:22.025Z,5.60
2023-04-22T04:04:49.082Z,5.40
2023-04-22T04:07:17.421Z,5.15
2023-04-22T04:09:44.257Z,5.20
2023-04-22T04:12:11.020Z,5.28
2023-04-22T04:14:37.805Z,5.05
2023-04-22T04:17:04.603Z,4.95
2023-04-22T04:19:31.401Z,5.55
2023-04-22T04:21:58.262Z,5.00
2023-04-22T04:24:25.096Z,4.70
2023-04-22T04:26:52.136Z,4.53
2023-04-22T04:29:21.434Z,4.18
2023-04-22T04:31:48.390Z,5.18
2023-04-22T04:34:15.379Z,4.55
2023-04-22T04:36:42.302Z,4.65
2023-04-22T04:39:09.659Z,4.00
2023-04-22T04:41:36.531Z,4.60
2023-04-22T04:44:03.833Z,4.80
2023-04-22T04:46:30.718Z,4.15
2023-04-22T04:48:57.665Z,3.95
2023-04-22T04:51:24.530Z,3.72
2023-04-22T04:53:52.758Z,3.85
2023-04-22T04:56:19.564Z,4.63
2023-04-22T04:58:46.368Z,4.03
2023-04-22T05:01:14.266Z,4.28
2023-04-22T05:03:41.296Z,4.07
2023-04-22T05:06:08.466Z,3.30
2023-04-22T05:08:36.009Z,4.05
2023-04-22T05:11:02.873Z,3.92
2023-04-22T05:13:31.145Z,3.78
2023-04-22T05:16:00.119Z,4.00
2023-04-22T05:18:27.151Z,4.03
2023-04-22T05:20:54.178Z,3.45
2023-04-22T05:23:21.286Z,3.63
2023-04-22T05:25:48.157Z,3.83
2023-04-22T05:28:14.966Z,3.85
2023-04-22T05:30:41.739Z,3.92
2023-04-22T05:33:10.453Z,3.97
2023-04-22T05:35:37.309Z,4.00
2023-04-22T05:38:04.182Z,3.50
2023-04-22T05:40:31.052Z,3.60
2023-04-22T05:42:57.957Z,3.83
2023-04-22T05:45:24.786Z,3.78
2023-04-22T05:47:51.670Z,3.45
2023-04-22T05:50:18.629Z,3.45
2023-04-22T05:52:45.748Z,3.70
2023-04-22T05:55:12.654Z,3.50
2023-04-22T05:57:39.701Z,3.40
2023-04-22T06:00:08.331Z,3.35
2023-04-22T06:02:36.224Z,3.33
2023-04-22T06:05:03.610Z,3.33
2023-04-22T06:07:30.608Z,2.92
2023-04-22T06:10:04.500Z,3.10
2023-04-22T06:12:33.751Z,3.25
2023-04-22T06:15:00.875Z,3.28
2023-04-22T06:17:27.945Z,3.50
2023-04-22T06:19:54.991Z,3.15
2023-04-22T06:22:23.381Z,3.15
2023-04-22T06:24:50.196Z,3.70
2023-04-22T06:27:17.032Z,3.92
2023-04-22T06:29:44.368Z,3.30
2023-04-22T06:32:12.506Z,3.03
2023-04-22T06:34:39.336Z,3.17
2023-04-22T06:37:06.622Z,3.08
2023-04-22T06:39:35.068Z,3.03
2023-04-22T06:42:02.369Z,3.17
2023-04-22T06:44:29.617Z,3.08
2023-04-22T06:46:58.268Z,2.92
2023-04-22T06:49:25.416Z,2.90
2023-04-22T06:51:52.392Z,2.70
2023-04-22T06:54:19.246Z,2.55
2023-04-22T06:56:46.213Z,3.10
2023-04-22T06:59:13.029Z,2.75
2023-04-22T07:01:39.866Z,2.70
2023-04-22T07:04:07.035Z,2.72
2023-04-22T07:06:34.915Z,2.80
2023-04-22T07:09:01.748Z,2.58
2023-04-22T07:11:28.581Z,2.70
2023-04-22T07:13:56.722Z,2.90
2023-04-22T07:16:28.757Z,2.60
2023-04-22T07:18:58.496Z,2.40
2023-04-22T07:21:25.944Z,2.50
2023-04-22T07:23:53.410Z,2.40
2023-04-22T07:26:21.279Z,2.20
2023-04-22T07:28:48.269Z,2.20
2023-04-22T07:31:16.632Z,2.58
2023-04-22T07:33:44.012Z,2.60
2023-04-22T07:36:10.882Z,2.72
2023-04-22T07:38:38.040Z,2.60
2023-04-22T08:00:54.181Z,2.40
2023-04-22T08:03:21.410Z,2.63
2023-04-22T08:05:49.757Z,2.10
2023-04-22T08:08:16.915Z,2.17
2023-04-22T08:10:43.798Z,1.90
2023-04-22T08:13:10.961Z,2.30
2023-04-22T08:15:38.864Z,1.83
2023-04-22T08:18:05.897Z,2.10
2023-04-22T08:20:32.876Z,2.13
2023-04-22T08:23:00.734Z,2.28
2023-04-22T08:25:28.354Z,2.20
2023-04-22T08:27:55.273Z,2.25
2023-04-22T08:30:22.206Z,2.15
2023-04-22T08:32:53.538Z,2.30
2023-04-22T08:35:21.286Z,2.05
2023-04-22T08:37:48.159Z,2.00
2023-04-22T08:40:14.991Z,2.30
2023-04-22T08:42:43.906Z,2.20
2023-04-22T08:45:11.131Z,2.10
2023-04-22T08:47:38.880Z,2.05
2023-04-22T08:50:07.560Z,2.03
2023-04-22T08:52:34.506Z,1.98
2023-04-22T08:55:02.151Z,2.10
2023-04-22T08:57:30.123Z,2.22
2023-04-22T08:59:57.171Z,2.00
2023-04-22T09:02:24.903Z,2.03
2023-04-22T09:04:56.545Z,1.80
2023-04-22T09:07:27.679Z,2.17
2023-04-22T09:09:59.859Z,2.20
2023-04-22T09:12:27.255Z,2.03
2023-04-22T09:14:57.652Z,2.00
2023-04-22T09:17:35.422Z,2.10
2023-04-22T09:20:04.831Z,1.90
2023-04-22T09:22:44.679Z,2.00
2023-04-22T09:25:22.802Z,2.00
2023-04-22T09:27:56.465Z,1.75
2023-04-22T09:30:28.670Z,2.60
2023-04-22T09:32:57.504Z,1.83
2023-04-22T09:35:36.581Z,2.30
2023-04-22T09:38:06.892Z,2.10
2023-04-22T09:40:34.868Z,2.10
2023-04-22T09:43:08.742Z,1.98
2023-04-22T09:45:41.271Z,5.13
2023-04-22T09:48:17.493Z,2.95
2023-04-22T09:50:49.730Z,2.20
2023-04-22T09:53:19.365Z,1.92
2023-04-22T09:55:52.172Z,2.70
2023-04-22T09:58:21.012Z,1.98
2023-04-22T10:00:53.549Z,9.68
2023-04-22T10:03:20.696Z,2.35
2023-04-22T10:05:47.889Z,1.63
2023-04-22T10:08:17.823Z,1.80
2023-04-22T10:10:45.496Z,1.80
2023-04-22T10:13:12.889Z,2.17
2023-04-22T10:15:54.359Z,2.58
2023-04-22T10:18:33.063Z,2.47
2023-04-22T10:21:01.431Z,2.20
2023-04-22T10:23:33.118Z,2.35
2023-04-22T10:26:00.693Z,2.22
2023-04-22T10:28:29.666Z,2.00
2023-04-22T10:30:56.568Z,2.20
2023-04-22T10:33:28.876Z,2.40
2023-04-22T10:36:14.490Z,1.90
2023-04-22T10:39:04.075Z,2.17
2023-04-22T10:41:35.644Z,2.22
2023-04-22T10:44:06.943Z,1.95
2023-04-22T10:46:45.539Z,2.10
2023-04-22T10:49:13.537Z,2.60
2023-04-22T10:51:46.274Z,2.20
2023-04-22T10:54:32.609Z,1.95
2023-04-22T10:57:07.718Z,2.33
2023-04-22T10:59:58.278Z,2.30
2023-04-22T11:02:25.223Z,2.30
2023-04-22T11:05:12.437Z,2.50
2023-04-22T11:07:40.882Z,2.35
2023-04-22T11:10:10.180Z,2.25
2023-04-22T11:12:39.763Z,2.53
2023-04-22T11:15:15.250Z,2.58
2023-04-22T11:17:48.171Z,3.05
2023-04-22T11:20:17.593Z,2.40
2023-04-22T11:22:47.360Z,2.60
2023-04-22T11:25:16.502Z,2.58
2023-04-22T11:27:44.322Z,3.63
2023-04-22T11:30:22.777Z,2.45
2023-04-22T11:33:02.450Z,2.33
2023-04-22T11:35:36.137Z,2.35
2023-04-22T11:38:08.771Z,2.75
2023-04-22T11:40:40.529Z,2.38
2023-04-22T11:43:14.002Z,2.67
2023-04-22T11:45:41.148Z,2.70
2023-04-22T11:48:11.267Z,2.92
2023-04-22T11:50:39.742Z,2.50
2023-04-22T11:53:21.098Z,2.90
2023-04-22T11:55:53.908Z,2.53
2023-04-22T11:58:29.842Z,2.17
2023-04-22T12:00:59.404Z,2.78
2023-04-22T12:03:28.917Z,2.83
2023-04-22T12:06:02.929Z,2.40
2023-04-22T12:08:35.877Z,5.25
2023-04-22T12:11:08.205Z,2.75
2023-04-22T12:13:42.978Z,2.60
2023-04-22T12:16:19.693Z,2.33
2023-04-22T12:18:51.858Z,2.58
2023-04-22T12:21:24.970Z,2.10
2023-04-22T12:23:54.409Z,2.50
2023-04-22T12:26:26.396Z,2.20
2023-04-22T12:28:55.513Z,2.28
2023-04-22T12:31:25.175Z,2.03
2023-04-22T12:33:52.587Z,2.42
2023-04-22T12:36:23.800Z,2.85
2023-04-22T12:38:51.737Z,2.67
2023-04-22T12:41:19.068Z,2.10
2023-04-22T12:43:46.140Z,2.47
2023-04-22T12:46:14.215Z,2.40
2023-04-22T12:48:42.967Z,2.13
2023-04-22T12:51:09.912Z,1.95
2023-04-22T12:53:36.944Z,2.25
2023-04-22T12:56:04.202Z,2.33
2023-04-22T12:58:32.065Z,2.30
2023-04-22T13:01:00.034Z,2.30
2023-04-22T13:03:29.408Z,1.95
2023-04-22T13:05:57.009Z,2.47
2023-04-22T13:08:24.079Z,2.00
2023-04-22T13:10:56.515Z,2.03
2023-04-22T13:13:23.686Z,2.67
2023-04-22T13:15:54.386Z,2.08
2023-04-22T13:18:23.397Z,2.03
2023-04-22T13:20:55.212Z,2.33
2023-04-22T13:23:23.428Z,2.65
2023-04-22T13:25:50.717Z,1.80
2023-04-22T13:28:18.036Z,2.40
2023-04-22T13:30:49.204Z,1.85
2023-04-22T13:33:18.296Z,2.03
2023-04-22T13:35:45.587Z,2.03
2023-04-22T13:38:15.205Z,2.20
2023-04-22T13:40:48.528Z,1.85
2023-04-22T13:43:18.255Z,1.95
2023-04-22T13:45:45.785Z,1.70
2023-04-22T13:48:12.688Z,1.63
2023-04-22T13:50:42.839Z,1.70
2023-04-22T13:53:13.057Z,1.60
2023-04-22T13:55:40.219Z,1.50
2023-04-22T13:58:07.809Z,1.70
2023-04-22T14:00:36.469Z,1.80
2023-04-22T14:03:03.603Z,2.28
2023-04-22T14:05:31.861Z,1.60
2023-04-22T14:07:59.929Z,1.15
2023-04-22T14:10:28.664Z,1.35
2023-04-22T14:12:56.394Z,1.58
2023-04-22T14:15:24.131Z,1.20
2023-04-22T14:17:51.218Z,1.50
2023-04-22T14:20:18.148Z,1.33
2023-04-22T14:22:44.963Z,1.30
2023-04-22T14:25:11.775Z,1.48
2023-04-22T14:27:39.015Z,1.40
2023-04-22T14:30:08.497Z,1.65
2023-04-22T14:32:36.473Z,1.48
2023-04-22T14:35:06.599Z,1.38
2023-04-22T14:37:36.106Z,1.30
2023-04-22T14:40:07.502Z,1.27
2023-04-22T14:42:35.007Z,1.63
2023-04-22T14:45:02.344Z,1.67
2023-04-22T14:47:34.536Z,1.90
2023-04-22T14:50:04.939Z,1.70
2023-04-22T14:52:37.930Z,1.83
2023-04-22T14:55:19.468Z,1.70
2023-04-22T15:00:18.575Z,1.80
2023-04-22T15:02:46.863Z,1.73
2023-04-22T15:05:14.476Z,1.88
2023-04-22T15:07:42.533Z,1.50
2023-04-22T15:10:15.579Z,1.80
2023-04-22T15:12:42.694Z,2.00
2023-04-22T15:15:13.614Z,1.63
2023-04-22T15:17:41.510Z,1.63
2023-04-22T15:20:09.483Z,1.20
2023-04-22T15:22:37.522Z,1.65
2023-04-22T15:25:07.586Z,1.77
2023-04-22T15:27:34.552Z,1.52
2023-04-22T15:30:01.579Z,1.40
2023-04-22T15:32:28.357Z,1.40
2023-04-22T15:34:55.237Z,1.70
2023-04-22T15:37:23.202Z,1.70
2023-04-22T15:39:50.359Z,1.27
2023-04-22T15:42:17.135Z,1.50
2023-04-22T15:44:44.335Z,1.33
2023-04-22T15:47:11.283Z,1.65
2023-04-22T15:49:39.641Z,1.20
2023-04-22T15:52:07.145Z,1.50
2023-04-22T15:54:35.169Z,1.30
2023-04-22T15:57:02.330Z,1.20
2023-04-22T15:59:29.193Z,1.35
2023-04-22T16:01:57.119Z,1.48
2023-04-22T16:04:24.489Z,1.40
2023-04-22T16:06:52.378Z,1.40
2023-04-22T16:09:19.819Z,1.70
2023-04-22T16:11:46.948Z,1.45
2023-04-22T16:14:15.042Z,1.63
2023-04-22T16:16:43.917Z,1.90
2023-04-22T16:19:16.339Z,2.10
2023-04-22T16:21:44.518Z,1.73
2023-04-22T16:24:11.387Z,2.10
2023-04-22T16:26:38.477Z,1.80
2023-04-22T16:29:08.311Z,1.83
2023-04-22T16:31:35.727Z,1.70
2023-04-22T16:34:04.188Z,1.95
2023-04-22T16:36:31.026Z,1.80
2023-04-22T16:39:01.189Z,1.67
2023-04-22T16:41:28.099Z,2.00
2023-04-22T16:43:55.064Z,1.85
2023-04-22T16:46:21.911Z,1.80
2023-04-22T16:48:48.769Z,1.75
2023-04-22T16:51:15.969Z,1.95
2023-04-22T16:53:44.068Z,1.83
2023-04-22T16:56:12.205Z,1.42
2023-04-22T16:58:41.439Z,2.00
2023-04-22T17:01:09.571Z,1.90
2023-04-22T17:03:36.628Z,2.10
2023-04-22T17:06:04.787Z,1.90
2023-04-22T17:08:32.786Z,2.20
2023-04-22T17:11:01.174Z,1.50
2023-04-22T17:13:28.038Z,2.75
2023-04-22T17:15:55.159Z,2.08
2023-04-22T17:18:22.146Z,1.90
2023-04-22T17:20:53.033Z,1.98
2023-04-22T17:23:20.190Z,1.67
2023-04-22T17:25:48.744Z,1.80
2023-04-22T17:28:15.897Z,1.40
2023-04-22T17:30:42.789Z,1.70
2023-04-22T17:33:09.714Z,1.88
2023-04-22T17:35:36.476Z,2.00
2023-04-22T17:38:04.618Z,1.65
2023-04-22T17:40:31.564Z,1.40
2023-04-22T17:42:58.387Z,1.70
2023-04-22T17:45:26.591Z,1.40
2023-04-22T17:47:53.497Z,1.58
2023-04-22T17:50:21.282Z,1.40
2023-04-22T17:52:48.100Z,1.50
2023-04-22T17:55:16.071Z,1.65
2023-04-22T17:57:43.000Z,1.60
2023-04-22T18:00:10.800Z,1.60
2023-04-22T18:02:37.816Z,1.60
2023-04-22T18:05:07.369Z,1.95
2023-04-22T18:07:34.278Z,1.67
2023-04-22T18:10:01.467Z,1.20
2023-04-22T18:12:32.641Z,1.30
2023-04-22T18:15:01.659Z,1.40
2023-04-22T18:17:28.498Z,1.33
2023-04-22T18:20:09.824Z,1.23
2023-04-22T18:22:44.147Z,1.30
2023-04-22T18:25:10.954Z,1.33
2023-04-22T18:27:38.817Z,1.30
2023-04-22T18:30:07.426Z,1.17
2023-04-22T18:32:34.438Z,1.40
2023-04-22T18:35:01.795Z,2.95
2023-04-22T18:37:30.911Z,1.42
2023-04-22T18:40:00.898Z,1.73
2023-04-22T18:42:27.738Z,1.50
2023-04-22T18:44:54.552Z,1.80
2023-04-22T18:47:22.786Z,1.65
2023-04-22T18:49:49.870Z,1.67
2023-04-22T18:52:17.492Z,3.47
2023-04-22T18:54:44.522Z,2.00
2023-04-22T18:57:14.260Z,1.80
2023-04-22T18:59:42.332Z,1.77
2023-04-22T19:02:14.282Z,1.67
2023-04-22T19:04:41.492Z,1.77
2023-04-22T19:07:08.666Z,2.25
2023-04-22T19:09:36.577Z,1.75
2023-04-22T19:12:04.409Z,1.83
2023-04-22T19:14:31.249Z,2.10
2023-04-22T19:16:58.072Z,2.25
2023-04-22T19:19:25.890Z,1.60
2023-04-22T19:21:52.859Z,2.33
2023-04-22T19:24:19.725Z,3.00
2023-04-22T19:26:47.213Z,2.60
2023-04-22T19:29:16.261Z,1.90
2023-04-22T19:31:46.666Z,2.50
2023-04-22T19:34:13.537Z,4.32
2023-04-22T19:36:40.404Z,2.75
2023-04-22T19:39:09.735Z,2.58
2023-04-22T19:41:40.471Z,2.72
2023-04-22T19:44:08.884Z,2.47
2023-04-22T19:46:38.558Z,3.10
2023-04-22T19:49:07.301Z,3.00
2023-04-22T19:51:34.732Z,4.28
2023-04-22T19:54:04.151Z,4.00
2023-04-22T19:56:32.818Z,2.80
2023-04-22T19:59:01.074Z,4.25
2023-04-22T20:01:28.351Z,3.13
2023-04-22T20:03:58.526Z,3.13
2023-04-22T20:06:25.964Z,5.38
2023-04-22T20:08:54.387Z,4.53
2023-04-22T20:11:25.184Z,5.18
2023-04-22T20:13:53.726Z,5.53
2023-04-22T20:16:20.966Z,6.32
2023-04-22T20:18:48.449Z,7.88
2023-04-22T20:21:16.603Z,5.93
2023-04-22T20:23:46.805Z,4.95
2023-04-22T20:26:18.976Z,4.22
2023-04-22T20:28:48.429Z,4.97
2023-04-22T20:31:21.194Z,3.85
2023-04-22T20:33:50.020Z,4.38
2023-04-22T20:36:21.250Z,4.03
2023-04-22T20:38:51.070Z,3.22
2023-04-22T20:41:20.259Z,3.15
2023-04-22T20:43:47.353Z,2.85
2023-04-22T20:46:14.684Z,3.50
2023-04-22T20:48:41.609Z,2.95
2023-04-22T20:51:08.737Z,3.20
2023-04-22T20:53:35.575Z,2.90
2023-04-22T20:56:03.868Z,3.30
2023-04-22T20:58:32.568Z,3.35
2023-04-22T21:00:59.491Z,4.20
2023-04-22T21:03:29.302Z,5.38
2023-04-22T21:05:57.692Z,6.10
2023-04-22T21:08:26.798Z,5.32
2023-04-22T21:10:55.675Z,5.45
2023-04-22T21:13:23.777Z,6.63
2023-04-22T21:16:02.918Z,5.50
2023-04-22T21:18:36.158Z,3.83
2023-04-22T21:21:04.356Z,3.67
2023-04-22T21:23:32.601Z,3.95
2023-04-22T21:26:01.758Z,3.78
2023-04-22T21:28:32.250Z,4.32
2023-04-22T21:31:00.313Z,5.00
2023-04-22T21:33:27.339Z,5.13
2023-04-22T21:35:56.127Z,5.35
2023-04-22T21:38:24.830Z,6.05
2023-04-22T21:40:52.090Z,6.05
2023-04-22T21:43:20.045Z,5.60
2023-04-22T21:45:48.053Z,5.97
2023-04-22T21:48:14.847Z,6.10
2023-04-22T21:50:41.725Z,6.45
2023-04-22T21:53:08.523Z,6.68
2023-04-22T21:55:35.359Z,6.50
2023-04-22T21:58:02.430Z,6.70
2023-04-22T22:00:30.872Z,8.60
2023-04-22T22:02:58.851Z,7.82
2023-04-22T22:05:27.036Z,7.95
2023-04-22T22:07:55.497Z,6.70
2023-04-22T22:10:22.715Z,8.07
2023-04-22T22:12:49.733Z,8.00
2023-04-22T22:15:17.372Z,8.43
2023-04-22T22:17:44.747Z,7.97
2023-04-22T22:20:14.417Z,8.00
2023-04-22T22:22:42.155Z,8.65
2023-04-22T22:25:10.925Z,8.10
2023-04-22T22:27:40.772Z,8.90
2023-04-22T22:30:08.859Z,8.55
2023-04-22T22:32:36.484Z,8.63
2023-04-22T22:35:03.585Z,9.10
2023-04-22T22:37:30.461Z,9.25
2023-04-22T22:39:57.344Z,9.30
2023-04-22T22:42:24.117Z,9.48
2023-04-22T22:44:50.937Z,9.27
2023-04-22T22:47:18.227Z,8.38
2023-04-22T22:49:45.805Z,9.38
2023-04-22T22:52:13.295Z,8.63
2023-04-22T22:54:41.114Z,9.00
2023-04-22T22:57:08.890Z,9.52
2023-04-22T22:59:36.844Z,10.02
2023-04-22T23:02:04.081Z,10.73
2023-04-22T23:04:31.235Z,10.65
2023-04-22T23:06:58.382Z,11.23
2023-04-22T23:09:25.252Z,13.32
2023-04-22T23:11:52.158Z,13.50
2023-04-22T23:14:20.249Z,13.35
2023-04-22T23:16:48.370Z,14.45
2023-04-22T23:19:17.193Z,12.25
2023-04-22T23:21:44.930Z,13.82
2023-04-22T23:24:14.296Z,14.55
2023-04-22T23:26:41.835Z,13.93
2023-04-22T23:29:09.172Z,16.42
2023-04-22T23:31:36.241Z,15.73
2023-04-22T23:34:05.452Z,15.95
2023-04-22T23:36:36.615Z,14.80
2023-04-22T23:39:05.766Z,15.50
2023-04-22T23:41:33.247Z,13.73
2023-04-22T23:44:00.416Z,15.55
2023-04-22T23:46:27.491Z,15.20
2023-04-22T23:48:54.890Z,15.68
2023-04-22T23:51:21.998Z,17.30
2023-04-22T23:53:49.052Z,16.40
2023-04-22T23:56:20.246Z,17.42
2023-04-22T23:58:48.084Z,16.70
